Weather at La Guardia Airport

Public forecast

Using degrees Fahrenheit for public forecast. Weather courtesy of forecast.io.

Current aviation weather report (METAR) for La Guardia Airport

Retrieved 2021/01/21 15:51 UTC (48 minutes ago):

KLGA 211551Z 22011KT 10SM FEW090 BKN120 BKN250 02/M09 A2979 RMK AO2 PRESFR SLP086 T00221089

Aviation forecast (TAF) for La Guardia Airport

Retrieved 2021/01/21 12:27 UTC (4 hours ago):

TAF KLGA 211124Z 2112/2218 22006KT P6SM FEW030 SCT150 FM211400 24012G18KT P6SM SCT030 BKN100 FM212200 24011KT P6SM BKN100 FM220700 27010KT P6SM FEW250 FM221300 28014G20KT P6SM SCT250